Terminal Aerodrome Forecast
Issued by NWS

Home | Current Version | Previous Version | Text Only | Print | Product List | Glossary On
Versions: 1 2 3 4 5 6 7 8 9 10 11 12 13 14 15 16 17
000
FTUS45 KBOU 162111 AAA
TAFAPA
TAF AMD
KAPA 162111Z 1621/1718 02008KT P6SM FEW070 BKN110
      TEMPO 1622/1701 BKN070
     FM170200 14008KT P6SM FEW110 SCT200
     FM170500 19010KT P6SM FEW200
     FM171500 24006KT P6SM FEW110 SCT200=

USA.gov is the U.S. government's official web portal to all federal, state and local government web resources and services.